createdAt,value
2023-05-06T00:02:26.663Z,6.65
2023-05-06T00:05:29.090Z,5.78
2023-05-06T00:08:31.145Z,7.82
2023-05-06T00:11:33.887Z,7.43
2023-05-06T00:14:36.204Z,8.23
2023-05-06T00:17:38.210Z,8.80
2023-05-06T00:20:40.487Z,9.20
2023-05-06T00:23:42.439Z,5.47
2023-05-06T00:26:44.368Z,7.75
2023-05-06T00:29:46.393Z,8.20
2023-05-06T00:32:48.603Z,7.80
2023-05-06T00:35:52.356Z,8.57
2023-05-06T00:38:54.516Z,7.47
2023-05-06T00:42:02.337Z,8.30
2023-05-06T00:45:06.435Z,6.80
2023-05-06T00:48:09.618Z,7.82
2023-05-06T00:51:12.824Z,11.50
2023-05-06T00:54:14.809Z,7.45
2023-05-06T00:57:16.970Z,8.30
2023-05-06T01:00:20.410Z,8.33
2023-05-06T01:03:22.896Z,9.18
2023-05-06T01:06:49.882Z,9.20
2023-05-06T01:10:01.074Z,7.20
2023-05-06T01:13:26.256Z,10.18
2023-05-06T01:16:30.933Z,7.47
2023-05-06T01:19:43.613Z,8.02
2023-05-06T01:22:45.686Z,8.45
2023-05-06T01:25:47.745Z,8.88
2023-05-06T01:28:51.432Z,7.78
2023-05-06T01:31:59.439Z,7.17
2023-05-06T01:35:18.195Z,6.97
2023-05-06T01:38:42.435Z,8.10
2023-05-06T01:41:50.047Z,11.68
2023-05-06T01:44:55.023Z,10.75
2023-05-06T01:47:57.834Z,8.87
2023-05-06T01:51:00.149Z,9.98
2023-05-06T01:54:03.031Z,9.40
2023-05-06T01:57:04.937Z,7.88
2023-05-06T02:00:08.242Z,7.30
2023-05-06T02:03:14.298Z,7.77
2023-05-06T02:06:16.459Z,8.13
2023-05-06T02:09:19.540Z,7.60
2023-05-06T02:12:27.797Z,10.55
2023-05-06T02:15:30.278Z,9.38
2023-05-06T02:18:33.188Z,9.23
2023-05-06T02:21:35.863Z,9.80
2023-05-06T02:24:37.792Z,6.85
2023-05-06T02:27:39.816Z,8.40
2023-05-06T02:30:41.799Z,8.90
2023-05-06T02:33:46.529Z,8.47
2023-05-06T02:36:48.472Z,9.35
2023-05-06T02:39:51.030Z,8.60
2023-05-06T02:42:53.003Z,12.77
2023-05-06T02:45:54.995Z,9.00
2023-05-06T02:48:57.089Z,9.83
2023-05-06T02:51:59.510Z,7.53
2023-05-06T02:55:02.307Z,6.30
2023-05-06T02:58:07.121Z,8.27
2023-05-06T03:01:09.394Z,8.40
2023-05-06T03:04:11.934Z,8.13
2023-05-06T03:07:13.851Z,9.70
2023-05-06T03:10:16.323Z,9.55
2023-05-06T03:13:19.014Z,7.85
2023-05-06T03:16:21.168Z,7.28
2023-05-06T03:19:26.741Z,7.72
2023-05-06T03:22:29.422Z,9.05
2023-05-06T03:25:32.536Z,7.80
2023-05-06T03:28:35.072Z,8.68
2023-05-06T03:31:38.659Z,9.17
2023-05-06T03:34:41.187Z,8.07
2023-05-06T03:37:45.656Z,7.97
2023-05-06T03:40:48.027Z,9.88
2023-05-06T03:43:50.997Z,9.68
2023-05-06T03:46:55.444Z,7.27
2023-05-06T03:49:57.598Z,9.32
2023-05-06T03:53:00.611Z,7.75
2023-05-06T03:56:05.087Z,10.98
2023-05-06T03:59:09.019Z,9.30
2023-05-06T04:02:11.447Z,8.65
2023-05-06T04:05:13.643Z,7.65
2023-05-06T04:08:17.361Z,8.57
2023-05-06T04:11:20.602Z,9.10
2023-05-06T04:14:24.003Z,7.03
2023-05-06T04:17:26.254Z,7.65
2023-05-06T04:20:29.182Z,8.10
2023-05-06T04:23:31.446Z,14.90
2023-05-06T04:26:35.064Z,8.75
2023-05-06T04:29:38.156Z,8.00
2023-05-06T04:32:40.629Z,10.13
2023-05-06T04:35:52.268Z,9.18
2023-05-06T04:38:54.422Z,9.25
2023-05-06T04:41:56.657Z,8.93
2023-05-06T04:45:06.414Z,8.30
2023-05-06T04:48:11.156Z,11.43
2023-05-06T04:51:13.367Z,9.77
2023-05-06T04:54:16.053Z,8.93
2023-05-06T04:57:18.115Z,8.60
2023-05-06T05:00:20.739Z,7.80
2023-05-06T05:03:23.015Z,8.32
2023-05-06T05:06:25.255Z,8.38
2023-05-06T05:09:28.083Z,8.57
2023-05-06T05:12:30.106Z,7.97
2023-05-06T05:15:32.434Z,8.17
2023-05-06T05:18:34.784Z,9.60
2023-05-06T05:21:42.821Z,9.38
2023-05-06T05:24:47.137Z,9.90
2023-05-06T05:27:49.185Z,8.98
2023-05-06T05:30:51.251Z,9.27
2023-05-06T05:33:53.789Z,8.40
2023-05-06T05:36:58.144Z,9.57
2023-05-06T05:40:01.051Z,7.28
2023-05-06T05:43:03.285Z,8.13
2023-05-06T05:46:11.980Z,10.57
2023-05-06T05:49:15.338Z,7.88
2023-05-06T05:52:18.453Z,7.95
2023-05-06T05:55:21.429Z,11.07
2023-05-06T05:58:24.118Z,7.88
2023-05-06T06:01:26.837Z,7.50
2023-05-06T06:04:29.440Z,10.07
2023-05-06T06:07:33.041Z,8.30
2023-05-06T06:10:35.098Z,9.02
2023-05-06T06:13:41.562Z,8.82
2023-05-06T06:16:43.745Z,8.33
2023-05-06T06:19:46.951Z,7.75
2023-05-06T06:22:49.015Z,8.95
2023-05-06T06:25:51.084Z,7.13
2023-05-06T06:28:53.148Z,9.00
2023-05-06T06:31:56.212Z,9.70
2023-05-06T06:34:58.515Z,10.00
2023-05-06T06:38:00.555Z,8.38
2023-05-06T06:41:02.738Z,8.55
2023-05-06T06:44:05.570Z,9.32
2023-05-06T06:47:07.594Z,6.77
2023-05-06T06:50:10.441Z,8.25
2023-05-06T06:53:12.473Z,8.75
2023-05-06T06:56:15.935Z,9.43
2023-05-06T06:59:17.844Z,9.57
2023-05-06T07:02:20.949Z,8.90
2023-05-06T07:05:23.082Z,9.27
2023-05-06T07:08:25.182Z,8.75
2023-05-06T07:11:27.247Z,9.20
2023-05-06T07:14:29.455Z,9.38
2023-05-06T07:17:31.397Z,9.93
2023-05-06T07:20:33.470Z,10.97
2023-05-06T07:23:35.801Z,10.00
2023-05-06T07:26:38.145Z,8.73
2023-05-06T07:29:40.321Z,8.57
2023-05-06T07:32:43.508Z,8.67
2023-05-06T07:35:46.380Z,8.13
2023-05-06T07:38:49.869Z,7.57
2023-05-06T07:41:51.993Z,10.20
2023-05-06T07:44:54.709Z,7.47
2023-05-06T07:47:57.766Z,7.90
2023-05-06T07:51:00.683Z,7.73
2023-05-06T07:54:02.862Z,7.63
2023-05-06T07:57:04.998Z,7.70
2023-05-06T08:00:07.513Z,6.93
2023-05-06T08:03:16.765Z,6.50
2023-05-06T08:06:18.982Z,6.20
2023-05-06T08:09:22.916Z,6.25
2023-05-06T08:12:25.189Z,6.95
2023-05-06T08:15:27.456Z,7.63
2023-05-06T08:18:30.304Z,7.17
2023-05-06T08:21:32.395Z,9.97
2023-05-06T08:24:34.358Z,7.35
2023-05-06T08:27:36.396Z,6.22
2023-05-06T08:30:38.499Z,7.63
2023-05-06T08:33:40.564Z,7.33
2023-05-06T08:36:42.701Z,7.73
2023-05-06T08:39:45.771Z,6.57
2023-05-06T08:42:48.812Z,6.55
2023-05-06T08:45:50.992Z,7.13
2023-05-06T08:48:53.122Z,6.07
2023-05-06T08:51:56.811Z,6.60
2023-05-06T08:55:01.979Z,7.05
2023-05-06T08:58:07.099Z,5.93
2023-05-06T09:01:09.389Z,5.97
2023-05-06T09:04:12.069Z,7.47
2023-05-06T09:07:14.258Z,6.13
2023-05-06T09:10:17.911Z,6.40
2023-05-06T09:13:20.168Z,6.30
2023-05-06T09:16:29.954Z,6.40
2023-05-06T09:19:31.999Z,7.93
2023-05-06T09:22:34.058Z,8.47
2023-05-06T09:25:37.418Z,7.45
2023-05-06T09:28:39.728Z,6.00
2023-05-06T09:31:46.160Z,6.30
2023-05-06T09:34:49.040Z,7.70
2023-05-06T09:37:51.797Z,5.57
2023-05-06T09:40:53.940Z,4.88
2023-05-06T09:43:57.900Z,5.82
2023-05-06T09:46:59.990Z,6.32
2023-05-06T09:50:03.530Z,6.60
2023-05-06T09:53:06.849Z,5.37
2023-05-06T09:56:09.781Z,7.47
2023-05-06T09:59:13.060Z,8.13
2023-05-06T10:02:15.645Z,8.40
2023-05-06T10:05:18.340Z,6.40
2023-05-06T10:08:25.575Z,5.97
2023-05-06T10:11:31.029Z,5.50
2023-05-06T10:14:33.103Z,5.20
2023-05-06T10:17:35.788Z,4.75
2023-05-06T10:20:41.310Z,5.33
2023-05-06T10:24:11.439Z,5.40
2023-05-06T10:27:18.393Z,4.55
2023-05-06T10:30:21.022Z,6.15
2023-05-06T10:33:25.068Z,5.22
2023-05-06T10:36:31.890Z,14.23
2023-05-06T10:39:34.004Z,4.50
2023-05-06T10:42:36.119Z,5.95
2023-05-06T10:46:05.597Z,4.40
2023-05-06T10:49:14.001Z,4.43
2023-05-06T10:52:19.964Z,8.13
2023-05-06T10:55:30.207Z,5.27
2023-05-06T10:58:36.244Z,5.00
2023-05-06T11:01:44.080Z,5.95
2023-05-06T11:05:00.185Z,7.55
2023-05-06T11:08:10.504Z,6.80
2023-05-06T11:12:02.081Z,4.17
2023-05-06T11:15:39.321Z,4.67
2023-05-06T11:18:42.387Z,6.70
2023-05-06T11:21:44.462Z,4.65
2023-05-06T11:24:46.536Z,9.40
2023-05-06T11:27:50.263Z,4.67
2023-05-06T11:30:55.532Z,4.37
2023-05-06T11:34:01.093Z,4.93
2023-05-06T11:37:07.823Z,5.63
2023-05-06T11:40:19.131Z,5.20
2023-05-06T11:43:21.234Z,4.57
2023-05-06T11:46:25.020Z,4.67
2023-05-06T11:49:27.618Z,4.72
2023-05-06T11:52:30.451Z,5.45
2023-05-06T11:55:32.505Z,4.85
2023-05-06T11:58:35.783Z,5.13
2023-05-06T12:01:39.309Z,5.33
2023-05-06T12:04:46.905Z,5.35
2023-05-06T12:07:49.043Z,4.43
2023-05-06T12:10:52.058Z,5.18
2023-05-06T12:13:54.446Z,7.13
2023-05-06T12:16:56.798Z,5.80
2023-05-06T12:19:58.944Z,6.22
2023-05-06T12:23:11.720Z,4.97
2023-05-06T12:26:13.654Z,5.13
2023-05-06T12:29:19.871Z,5.67
2023-05-06T12:32:21.941Z,4.40
2023-05-06T12:35:28.418Z,4.05
2023-05-06T12:38:32.235Z,4.70
2023-05-06T12:41:41.985Z,4.90
2023-05-06T12:44:43.935Z,4.47
2023-05-06T12:47:56.481Z,3.57
2023-05-06T12:50:58.577Z,6.22
2023-05-06T12:54:00.646Z,4.30
2023-05-06T12:57:03.207Z,4.70
2023-05-06T13:00:07.440Z,4.10
2023-05-06T13:03:11.523Z,5.23
2023-05-06T13:06:16.042Z,4.50
2023-05-06T13:09:18.582Z,6.80
2023-05-06T13:12:20.812Z,5.10
2023-05-06T13:15:23.715Z,4.13
2023-05-06T13:18:25.955Z,4.60
2023-05-06T13:21:27.970Z,4.68
2023-05-06T13:24:30.096Z,7.70
2023-05-06T13:27:32.238Z,3.97
2023-05-06T13:30:34.309Z,4.20
2023-05-06T13:33:36.700Z,6.83
2023-05-06T13:36:38.951Z,4.03
2023-05-06T13:39:40.971Z,4.82
2023-05-06T13:42:43.189Z,5.25
2023-05-06T13:45:45.258Z,4.07
2023-05-06T13:48:47.295Z,6.00
2023-05-06T13:51:49.948Z,5.72
2023-05-06T13:54:51.894Z,6.75
2023-05-06T13:57:53.768Z,6.10
2023-05-06T14:00:55.729Z,3.93
2023-05-06T14:03:57.738Z,4.93
2023-05-06T14:06:59.757Z,4.95
2023-05-06T14:10:02.117Z,5.63
2023-05-06T14:13:06.931Z,4.60
2023-05-06T14:16:09.603Z,8.50
2023-05-06T14:19:11.882Z,8.00
2023-05-06T14:22:14.105Z,6.03
2023-05-06T14:25:16.170Z,6.28
2023-05-06T14:28:18.427Z,7.78
2023-05-06T14:31:20.443Z,5.60
2023-05-06T14:34:22.547Z,8.67
2023-05-06T14:37:24.544Z,7.55
2023-05-06T14:40:26.744Z,5.72
2023-05-06T14:43:28.682Z,6.18
2023-05-06T14:46:31.217Z,5.67
2023-05-06T14:49:33.555Z,5.13
2023-05-06T14:52:37.022Z,6.05
2023-05-06T14:55:40.740Z,6.25
2023-05-06T14:58:42.908Z,5.32
2023-05-06T15:01:45.197Z,7.33
2023-05-06T15:04:47.307Z,6.60
2023-05-06T15:07:49.318Z,5.80
2023-05-06T15:10:51.294Z,6.60
2023-05-06T15:13:53.405Z,7.40
2023-05-06T15:16:58.530Z,7.73
2023-05-06T15:20:00.781Z,8.67
2023-05-06T15:23:02.929Z,5.30
2023-05-06T15:26:04.945Z,6.00
2023-05-06T15:29:07.396Z,7.43
2023-05-06T15:32:13.235Z,7.83
2023-05-06T15:35:15.672Z,6.27
2023-05-06T15:38:17.760Z,6.53
2023-05-06T15:41:19.855Z,7.38
2023-05-06T15:44:21.824Z,9.25
2023-05-06T15:47:23.781Z,5.93
2023-05-06T15:50:34.105Z,8.73
2023-05-06T15:53:39.998Z,7.43
2023-05-06T15:56:41.966Z,6.35
2023-05-06T15:59:43.941Z,5.03
2023-05-06T16:02:46.266Z,6.13
2023-05-06T16:05:48.369Z,7.03
2023-05-06T16:08:50.517Z,8.35
2023-05-06T16:11:54.592Z,5.05
2023-05-06T16:14:56.641Z,6.28
2023-05-06T16:17:58.676Z,7.37
2023-05-06T16:21:01.183Z,5.83
2023-05-06T16:24:03.383Z,6.20
2023-05-06T16:27:05.747Z,5.53
2023-05-06T16:30:09.135Z,7.35
2023-05-06T16:33:12.195Z,7.27
2023-05-06T16:36:14.244Z,7.23
2023-05-06T16:39:16.372Z,5.80
2023-05-06T16:42:18.578Z,5.70
2023-05-06T16:45:20.650Z,7.40
2023-05-06T16:48:22.843Z,7.80
2023-05-06T16:51:24.931Z,8.77
2023-05-06T16:54:27.268Z,7.80
2023-05-06T16:57:29.296Z,6.50
2023-05-06T17:00:32.054Z,5.95
2023-05-06T17:03:37.858Z,8.07
2023-05-06T17:06:40.077Z,6.70
2023-05-06T17:09:42.108Z,5.60
2023-05-06T17:12:44.156Z,6.57
2023-05-06T17:15:46.094Z,9.07
2023-05-06T17:18:48.287Z,8.13
2023-05-06T17:21:50.389Z,7.10
2023-05-06T17:24:52.456Z,7.47
2023-05-06T17:27:54.444Z,8.68
2023-05-06T17:30:56.478Z,7.03
2023-05-06T17:33:58.797Z,6.53
2023-05-06T17:37:00.798Z,9.27
2023-05-06T17:40:03.438Z,7.57
2023-05-06T17:43:07.441Z,6.55
2023-05-06T17:46:09.530Z,10.48
2023-05-06T17:49:12.082Z,8.30
2023-05-06T17:52:14.225Z,6.47
2023-05-06T17:55:23.598Z,6.60
2023-05-06T17:58:25.972Z,6.85
2023-05-06T18:01:29.176Z,9.15
2023-05-06T18:04:31.246Z,13.87
2023-05-06T18:07:33.281Z,9.10
2023-05-06T18:10:35.572Z,9.32
2023-05-06T18:13:37.695Z,7.97
2023-05-06T18:16:39.846Z,8.07
2023-05-06T18:19:41.919Z,7.50
2023-05-06T18:22:44.142Z,6.77
2023-05-06T18:25:46.255Z,7.68
2023-05-06T18:28:49.029Z,7.82
2023-05-06T18:31:51.134Z,8.55
2023-05-06T18:34:54.079Z,9.60
2023-05-06T18:37:56.020Z,9.97
2023-05-06T18:40:58.139Z,12.25
2023-05-06T18:44:00.069Z,11.00
2023-05-06T18:47:02.211Z,12.15
2023-05-06T18:50:04.626Z,10.43
2023-05-06T18:53:06.996Z,9.90
2023-05-06T18:56:13.371Z,7.60
2023-05-06T18:59:15.385Z,11.13
2023-05-06T19:02:17.745Z,10.35
2023-05-06T19:05:20.634Z,10.47
2023-05-06T19:08:22.767Z,9.13
2023-05-06T19:11:24.731Z,8.95
2023-05-06T19:14:26.827Z,9.82
2023-05-06T19:17:29.230Z,13.07
2023-05-06T19:20:31.398Z,10.03
2023-05-06T19:23:33.381Z,7.97
2023-05-06T19:26:35.438Z,11.13
2023-05-06T19:29:37.621Z,11.15
2023-05-06T19:32:40.470Z,13.85
2023-05-06T19:35:42.548Z,10.30
2023-05-06T19:38:44.635Z,9.63
2023-05-06T19:41:47.916Z,8.40
2023-05-06T19:44:49.998Z,7.90
2023-05-06T19:47:52.852Z,9.77
2023-05-06T19:50:54.911Z,9.90
2023-05-06T19:53:56.953Z,10.10
2023-05-06T19:56:59.902Z,13.95
2023-05-06T20:00:09.891Z,10.55
2023-05-06T20:03:12.756Z,10.70
2023-05-06T20:06:14.827Z,8.80
2023-05-06T20:09:16.902Z,10.70
2023-05-06T20:12:18.872Z,9.10
2023-05-06T20:15:21.237Z,7.80
2023-05-06T20:18:23.313Z,12.25
2023-05-06T20:21:25.298Z,9.47
2023-05-06T20:24:29.536Z,10.10
2023-05-06T20:27:31.599Z,8.20
2023-05-06T20:30:34.364Z,8.43
2023-05-06T20:33:36.427Z,9.02
2023-05-06T20:36:38.523Z,9.00
2023-05-06T20:39:40.640Z,8.05
2023-05-06T20:42:42.729Z,10.00
2023-05-06T20:45:44.831Z,8.65
2023-05-06T20:48:47.076Z,11.30
2023-05-06T20:51:49.365Z,9.17
2023-05-06T20:54:51.362Z,7.67
2023-05-06T20:57:53.443Z,9.52
2023-05-06T21:00:55.556Z,8.43
2023-05-06T21:03:58.967Z,9.88
2023-05-06T21:07:00.984Z,13.17
2023-05-06T21:10:05.611Z,9.48
2023-05-06T21:13:08.085Z,8.60
2023-05-06T21:16:10.181Z,8.15
2023-05-06T21:19:12.160Z,7.80
2023-05-06T21:22:15.356Z,10.13
2023-05-06T21:25:17.466Z,10.17
2023-05-06T21:28:19.523Z,11.52
2023-05-06T21:31:22.878Z,11.25
2023-05-06T21:34:25.614Z,11.77
2023-05-06T21:37:27.636Z,12.87
2023-05-06T21:40:29.660Z,14.27
2023-05-06T21:43:33.311Z,13.88
2023-05-06T21:46:37.742Z,15.60
2023-05-06T21:49:39.887Z,14.23
2023-05-06T21:52:41.933Z,17.13
2023-05-06T21:55:44.464Z,17.53
2023-05-06T21:58:46.511Z,15.63
2023-05-06T22:01:48.761Z,11.40
2023-05-06T22:04:51.109Z,11.98
2023-05-06T22:07:53.139Z,14.40
2023-05-06T22:10:55.997Z,14.43
2023-05-06T22:13:58.006Z,9.20
2023-05-06T22:17:00.129Z,12.38
2023-05-06T22:20:05.899Z,11.13
2023-05-06T22:23:08.515Z,11.53
2023-05-06T22:26:10.578Z,10.52
2023-05-06T22:29:12.760Z,9.63
2023-05-06T22:32:14.829Z,8.75
2023-05-06T22:35:16.962Z,9.00
2023-05-06T22:38:19.001Z,8.67
2023-05-06T22:41:21.832Z,13.35
2023-05-06T22:44:23.918Z,9.23
2023-05-06T22:47:26.188Z,8.90
2023-05-06T22:50:29.111Z,9.82
2023-05-06T22:53:31.235Z,11.73
2023-05-06T22:56:33.244Z,9.00
2023-05-06T22:59:35.358Z,12.27
2023-05-06T23:02:37.880Z,10.93
2023-05-06T23:05:41.045Z,11.90
2023-05-06T23:08:43.073Z,13.43
2023-05-06T23:11:46.248Z,12.43
2023-05-06T23:14:48.254Z,15.13
2023-05-06T23:17:50.524Z,12.60
2023-05-06T23:20:52.586Z,15.15
2023-05-06T23:23:55.001Z,13.50
2023-05-06T23:26:56.981Z,12.63
2023-05-06T23:29:59.036Z,15.18
2023-05-06T23:33:01.162Z,14.82
2023-05-06T23:36:03.578Z,12.68
2023-05-06T23:39:05.637Z,10.77
2023-05-06T23:42:07.748Z,13.18
2023-05-06T23:45:10.331Z,14.20
2023-05-06T23:48:12.832Z,12.63
2023-05-06T23:51:14.847Z,11.88
2023-05-06T23:54:17.006Z,10.70
2023-05-06T23:57:19.285Z,11.80
